createdAt,value
2018-05-13T00:00:46.740Z,49.00
2018-05-13T00:03:57.017Z,50.78
2018-05-13T00:07:07.268Z,49.97
2018-05-13T00:10:17.037Z,64.55
2018-05-13T00:13:27.191Z,50.12
2018-05-13T00:16:36.880Z,49.00
2018-05-13T00:19:48.288Z,53.30
2018-05-13T00:22:57.764Z,52.65
2018-05-13T00:26:07.132Z,53.22
2018-05-13T00:29:17.138Z,48.67
2018-05-13T00:32:27.789Z,47.13
2018-05-13T00:35:37.667Z,47.80
2018-05-13T00:38:48.032Z,45.65
2018-05-13T00:41:57.848Z,46.55
2018-05-13T00:45:08.137Z,47.67
2018-05-13T00:48:18.348Z,54.72
2018-05-13T00:51:28.703Z,67.72
2018-05-13T00:54:55.796Z,57.40
2018-05-13T00:58:05.420Z,48.40
2018-05-13T01:01:14.895Z,53.35
2018-05-13T01:04:24.537Z,51.58
2018-05-13T01:07:33.968Z,45.63
2018-05-13T01:10:43.500Z,53.05
2018-05-13T01:13:53.415Z,55.05
2018-05-13T01:17:02.851Z,52.00
2018-05-13T01:20:16.116Z,52.10
2018-05-13T01:23:25.733Z,55.28
2018-05-13T01:26:35.268Z,52.90
2018-05-13T01:29:44.853Z,57.30
2018-05-13T01:32:54.259Z,52.78
2018-05-13T01:36:04.301Z,59.17
2018-05-13T01:39:14.604Z,55.08
2018-05-13T01:42:24.448Z,52.20
2018-05-13T01:45:34.660Z,48.27
2018-05-13T01:48:44.032Z,59.70
2018-05-13T01:51:53.488Z,56.37
2018-05-13T01:55:03.048Z,63.80
2018-05-13T01:58:12.541Z,62.10
2018-05-13T02:01:22.221Z,56.00
2018-05-13T02:04:32.853Z,54.80
2018-05-13T02:07:42.717Z,61.65
2018-05-13T02:10:53.111Z,52.28
2018-05-13T02:14:03.068Z,60.70
2018-05-13T02:17:13.125Z,65.68
2018-05-13T02:20:22.931Z,68.78
2018-05-13T02:23:35.558Z,70.12
2018-05-13T02:26:45.979Z,64.40
2018-05-13T02:29:55.678Z,63.33
2018-05-13T02:33:05.267Z,64.73
2018-05-13T02:36:15.797Z,62.70
2018-05-13T02:39:26.449Z,65.30
2018-05-13T02:42:36.615Z,61.50
2018-05-13T02:45:46.273Z,62.22
2018-05-13T02:48:56.740Z,64.05
2018-05-13T02:52:06.229Z,64.53
2018-05-13T02:55:17.131Z,61.97
2018-05-13T02:58:28.380Z,62.93
2018-05-13T03:01:38.086Z,59.17
2018-05-13T03:04:48.439Z,54.83
2018-05-13T03:07:58.324Z,55.15
2018-05-13T03:11:11.705Z,58.55
2018-05-13T03:14:21.801Z,62.92
2018-05-13T03:17:32.947Z,62.15
2018-05-13T03:20:43.097Z,123.03
2018-05-13T03:23:53.264Z,77.80
2018-05-13T03:27:02.889Z,85.68
2018-05-13T03:30:12.600Z,67.57
2018-05-13T03:33:21.932Z,65.72
2018-05-13T03:36:31.428Z,59.57
2018-05-13T03:39:41.046Z,56.42
2018-05-13T03:42:51.447Z,58.65
2018-05-13T03:46:01.372Z,55.80
2018-05-13T03:49:11.448Z,50.93
2018-05-13T03:52:22.865Z,54.10
2018-05-13T03:55:34.878Z,51.67
2018-05-13T04:02:01.039Z,56.67
2018-05-13T04:05:10.549Z,60.28
2018-05-13T04:12:16.835Z,55.00
2018-05-13T04:15:26.911Z,57.23
2018-05-13T04:18:38.148Z,54.80
2018-05-13T04:21:47.664Z,53.13
2018-05-13T04:24:59.107Z,50.57
2018-05-13T04:28:09.038Z,50.40
2018-05-13T04:31:20.468Z,47.70
2018-05-13T04:34:30.637Z,54.78
2018-05-13T04:37:40.141Z,55.55
2018-05-13T04:40:49.836Z,54.10
2018-05-13T04:43:59.741Z,55.83
2018-05-13T04:47:09.262Z,59.13
2018-05-13T04:50:19.718Z,60.22
2018-05-13T04:53:29.372Z,63.87
2018-05-13T04:56:45.179Z,72.37
2018-05-13T04:59:55.943Z,64.50
2018-05-13T05:03:05.373Z,71.57
2018-05-13T05:06:14.795Z,78.23
2018-05-13T05:09:24.893Z,67.78
2018-05-13T05:12:34.284Z,65.50
2018-05-13T05:15:44.601Z,77.93
2018-05-13T05:18:54.860Z,69.77
2018-05-13T05:22:04.749Z,67.27
2018-05-13T05:25:14.229Z,72.20
2018-05-13T05:28:23.710Z,64.23
2018-05-13T05:31:33.167Z,62.47
2018-05-13T05:34:42.724Z,58.33
2018-05-13T05:37:53.034Z,61.07
2018-05-13T05:41:03.832Z,63.27
2018-05-13T05:44:13.133Z,60.63
2018-05-13T05:47:23.377Z,53.70
2018-05-13T05:50:33.190Z,53.35
2018-05-13T05:53:43.420Z,53.38
2018-05-13T05:56:52.952Z,60.85
2018-05-13T06:00:02.979Z,52.13
2018-05-13T06:03:12.342Z,47.13
2018-05-13T06:06:22.267Z,45.63
2018-05-13T06:09:32.439Z,42.92
2018-05-13T06:12:42.958Z,43.10
2018-05-13T06:15:52.449Z,40.77
2018-05-13T06:19:01.841Z,41.25
2018-05-13T06:22:13.007Z,38.72
2018-05-13T06:25:22.533Z,42.30
2018-05-13T06:28:32.574Z,36.35
2018-05-13T06:31:43.894Z,40.53
2018-05-13T06:34:53.758Z,36.90
2018-05-13T06:38:03.892Z,35.53
2018-05-13T06:41:13.310Z,42.60
2018-05-13T06:44:23.160Z,41.25
2018-05-13T06:47:32.629Z,39.00
2018-05-13T06:50:42.341Z,34.70
2018-05-13T06:53:52.068Z,34.85
2018-05-13T06:57:01.472Z,33.15
2018-05-13T07:00:10.901Z,34.63
2018-05-13T07:03:21.140Z,31.75
2018-05-13T07:06:35.017Z,34.80
2018-05-13T07:09:49.857Z,36.72
2018-05-13T07:12:59.415Z,39.05
2018-05-13T07:16:09.733Z,36.97
2018-05-13T07:19:19.238Z,38.88
2018-05-13T07:22:28.760Z,38.53
2018-05-13T07:25:38.177Z,33.88
2018-05-13T07:28:48.560Z,39.17
2018-05-13T07:31:58.010Z,36.00
2018-05-13T07:35:08.233Z,31.83
2018-05-13T07:38:19.266Z,32.33
2018-05-13T07:41:29.625Z,33.10
2018-05-13T07:44:39.123Z,30.35
2018-05-13T07:47:49.613Z,32.88
2018-05-13T07:51:00.084Z,37.40
2018-05-13T07:54:09.408Z,30.08
2018-05-13T07:57:20.507Z,33.97
2018-05-13T08:00:30.342Z,30.35
2018-05-13T08:03:40.563Z,29.48
2018-05-13T08:06:50.847Z,30.55
2018-05-13T08:10:00.526Z,30.27
2018-05-13T08:13:10.076Z,32.65
2018-05-13T08:16:19.500Z,31.05
2018-05-13T08:19:29.005Z,30.17
2018-05-13T08:22:39.216Z,32.00
2018-05-13T08:25:49.971Z,31.12
2018-05-13T08:28:59.812Z,30.10
2018-05-13T08:32:09.307Z,33.28
2018-05-13T08:35:18.910Z,33.60
2018-05-13T08:38:29.168Z,30.52
2018-05-13T08:41:39.343Z,35.80
2018-05-13T08:44:50.938Z,28.10
2018-05-13T08:48:01.438Z,32.33
2018-05-13T08:51:11.183Z,30.75
2018-05-13T08:54:20.806Z,30.92
2018-05-13T08:57:30.337Z,33.25
2018-05-13T09:00:41.112Z,30.15
2018-05-13T09:03:51.457Z,30.12
2018-05-13T09:07:01.743Z,32.70
2018-05-13T09:10:12.364Z,36.10
2018-05-13T09:13:22.201Z,34.67
2018-05-13T09:16:35.904Z,28.92
2018-05-13T09:19:45.555Z,36.05
2018-05-13T09:22:56.092Z,34.20
2018-05-13T09:26:05.964Z,32.72
2018-05-13T09:29:15.878Z,30.02
2018-05-13T09:32:25.785Z,31.95
2018-05-13T09:35:35.337Z,30.23
2018-05-13T09:38:48.773Z,28.85
2018-05-13T09:41:59.038Z,25.25
2018-05-13T09:45:09.212Z,55.10
2018-05-13T09:48:18.542Z,53.42
2018-05-13T09:51:28.957Z,30.45
2018-05-13T09:54:39.280Z,28.42
2018-05-13T09:57:49.545Z,26.87
2018-05-13T10:00:59.423Z,29.58
2018-05-13T10:04:09.791Z,31.08
2018-05-13T10:07:20.060Z,32.58
2018-05-13T10:10:29.982Z,29.52
2018-05-13T10:13:39.282Z,28.00
2018-05-13T10:16:49.577Z,28.40
2018-05-13T10:19:59.864Z,28.45
2018-05-13T10:23:09.508Z,28.62
2018-05-13T10:26:19.401Z,30.62
2018-05-13T10:29:28.761Z,32.97
2018-05-13T10:32:38.235Z,27.00
2018-05-13T10:35:47.654Z,30.58
2018-05-13T10:38:57.282Z,32.20
2018-05-13T10:42:07.228Z,29.87
2018-05-13T10:45:16.760Z,27.17
2018-05-13T10:48:26.308Z,28.62
2018-05-13T10:51:36.005Z,28.05
2018-05-13T10:54:45.445Z,28.70
2018-05-13T10:57:57.113Z,25.90
2018-05-13T11:01:06.677Z,25.60
2018-05-13T11:04:17.421Z,26.62
2018-05-13T11:07:26.774Z,27.25
2018-05-13T11:10:39.972Z,30.23
2018-05-13T11:13:50.421Z,28.42
2018-05-13T11:17:00.207Z,32.03
2018-05-13T11:20:09.786Z,29.27
2018-05-13T11:23:19.305Z,24.80
2018-05-13T11:26:28.817Z,27.67
2018-05-13T11:29:38.361Z,24.77
2018-05-13T11:32:48.084Z,26.45
2018-05-13T11:35:58.956Z,26.55
2018-05-13T11:39:08.438Z,24.02
2018-05-13T11:42:17.906Z,23.27
2018-05-13T11:45:28.112Z,21.65
2018-05-13T11:48:37.729Z,23.20
2018-05-13T11:51:47.071Z,23.50
2018-05-13T11:54:59.798Z,25.30
2018-05-13T11:58:09.382Z,24.50
2018-05-13T12:01:19.577Z,25.05
2018-05-13T12:04:29.012Z,25.45
2018-05-13T12:07:39.251Z,27.05
2018-05-13T12:10:49.406Z,29.95
2018-05-13T12:14:00.909Z,26.73
2018-05-13T12:17:10.245Z,24.55
2018-05-13T12:20:19.697Z,24.45
2018-05-13T12:23:29.134Z,26.50
2018-05-13T12:26:43.194Z,26.85
2018-05-13T12:29:52.590Z,27.60
2018-05-13T12:33:02.120Z,25.45
2018-05-13T12:36:11.510Z,22.33
2018-05-13T12:39:21.732Z,24.90
2018-05-13T12:42:31.208Z,24.00
2018-05-13T12:45:40.668Z,35.78
2018-05-13T12:48:50.618Z,39.85
2018-05-13T12:52:01.879Z,45.83
2018-05-13T12:55:11.862Z,44.35
2018-05-13T12:58:21.791Z,44.33
2018-05-13T13:01:32.004Z,46.45
2018-05-13T13:04:41.508Z,56.55
2018-05-13T13:07:50.963Z,69.03
2018-05-13T13:11:01.805Z,15.70
2018-05-13T13:14:11.972Z,37.67
2018-05-13T13:17:21.814Z,82.63
2018-05-13T13:20:31.223Z,42.35
2018-05-13T13:23:41.516Z,18.80
2018-05-13T13:26:51.762Z,30.87
2018-05-13T13:30:02.970Z,68.47
2018-05-13T13:33:13.014Z,157.93
2018-05-13T13:36:23.117Z,241.50
2018-05-13T13:39:32.714Z,284.80
2018-05-13T13:42:42.572Z,277.10
2018-05-13T13:45:52.956Z,173.18
2018-05-13T13:49:05.172Z,155.10
2018-05-13T13:52:15.397Z,180.32
2018-05-13T13:55:25.636Z,124.17
2018-05-13T13:58:35.117Z,130.87
2018-05-13T14:01:44.964Z,162.00
2018-05-13T14:04:55.280Z,156.30
2018-05-13T14:08:06.189Z,142.93
2018-05-13T14:11:15.608Z,149.98
2018-05-13T14:14:25.581Z,138.80
2018-05-13T14:17:35.815Z,213.40
2018-05-13T14:20:46.057Z,230.13
2018-05-13T14:23:55.887Z,257.57
2018-05-13T14:27:06.086Z,276.30
2018-05-13T14:30:15.536Z,211.73
2018-05-13T14:33:25.528Z,227.17
2018-05-13T14:36:35.688Z,214.87
2018-05-13T14:39:46.181Z,201.77
2018-05-13T14:42:56.401Z,232.83
2018-05-13T14:46:09.007Z,218.27
2018-05-13T14:49:18.500Z,191.53
2018-05-13T14:52:27.854Z,205.33
2018-05-13T14:55:38.138Z,229.87
2018-05-13T14:58:48.028Z,278.43
2018-05-13T15:01:57.509Z,266.27
2018-05-13T15:05:09.569Z,306.70
2018-05-13T15:08:19.648Z,253.77
2018-05-13T15:11:29.112Z,203.73
2018-05-13T15:14:39.044Z,229.43
2018-05-13T15:17:49.320Z,197.13
2018-05-13T15:20:59.484Z,242.47
2018-05-13T15:24:09.754Z,193.43
2018-05-13T15:27:20.000Z,227.33
2018-05-13T15:30:29.873Z,185.90
2018-05-13T15:33:39.303Z,151.57
2018-05-13T15:36:49.709Z,166.57
2018-05-13T15:39:59.716Z,154.30
2018-05-13T15:43:10.208Z,197.67
2018-05-13T15:46:19.892Z,189.93
2018-05-13T15:49:29.355Z,182.43
2018-05-13T15:52:39.629Z,196.10
2018-05-13T15:55:49.076Z,200.07
2018-05-13T15:58:58.920Z,208.67
2018-05-13T16:02:11.147Z,197.90
2018-05-13T16:05:20.874Z,198.40
2018-05-13T16:08:31.175Z,194.33
2018-05-13T16:11:41.505Z,221.37
2018-05-13T16:14:51.520Z,179.20
2018-05-13T16:18:01.752Z,167.03
2018-05-13T16:21:12.415Z,173.50
2018-05-13T16:24:21.965Z,194.23
2018-05-13T16:27:32.232Z,189.40
2018-05-13T16:30:41.707Z,192.90
2018-05-13T16:33:55.894Z,219.93
2018-05-13T16:37:06.170Z,250.67
2018-05-13T16:40:15.632Z,214.93
2018-05-13T16:43:25.181Z,239.33
2018-05-13T16:46:34.771Z,241.13
2018-05-13T16:49:44.750Z,188.33
2018-05-13T16:52:55.020Z,187.53
2018-05-13T16:56:04.851Z,202.23
2018-05-13T16:59:15.092Z,207.60
2018-05-13T17:02:24.595Z,191.73
2018-05-13T17:05:34.326Z,199.87
2018-05-13T17:08:44.121Z,214.97
2018-05-13T17:11:53.581Z,228.77
2018-05-13T17:15:03.846Z,174.27
2018-05-13T17:18:14.971Z,183.00
2018-05-13T17:21:24.566Z,204.50
2018-05-13T17:24:34.013Z,190.73
2018-05-13T17:27:48.273Z,191.57
2018-05-13T17:30:57.725Z,208.07
2018-05-13T17:34:07.272Z,212.27
2018-05-13T17:37:17.530Z,225.17
2018-05-13T17:40:27.835Z,231.70
2018-05-13T17:43:37.608Z,225.17
2018-05-13T17:46:48.267Z,170.83
2018-05-13T17:49:57.836Z,199.10
2018-05-13T17:53:07.387Z,181.70
2018-05-13T17:56:17.664Z,191.03
2018-05-13T17:59:27.548Z,195.60
2018-05-13T18:02:37.240Z,194.23
2018-05-13T18:05:47.352Z,178.13
2018-05-13T18:09:00.799Z,189.10
2018-05-13T18:12:11.136Z,195.40
2018-05-13T18:15:21.143Z,215.03
2018-05-13T18:18:30.635Z,245.10
2018-05-13T18:21:41.731Z,265.93
2018-05-13T18:24:52.898Z,249.40
2018-05-13T18:28:02.272Z,232.80
2018-05-13T18:31:12.895Z,236.70
2018-05-13T18:34:23.295Z,252.47
2018-05-13T18:37:34.081Z,281.70
2018-05-13T18:40:44.719Z,265.10
2018-05-13T18:43:55.419Z,281.43
2018-05-13T18:47:05.073Z,246.50
2018-05-13T18:50:14.789Z,236.50
2018-05-13T18:53:25.274Z,268.50
2018-05-13T18:56:34.742Z,256.47
2018-05-13T18:59:46.121Z,207.53
2018-05-13T19:02:56.101Z,205.07
2018-05-13T19:06:05.545Z,249.70
2018-05-13T19:09:19.964Z,275.07
2018-05-13T19:12:29.499Z,252.77
2018-05-13T19:15:39.049Z,286.57
2018-05-13T19:18:53.378Z,252.83
2018-05-13T19:22:04.255Z,290.43
2018-05-13T19:25:14.313Z,270.90
2018-05-13T19:28:24.217Z,302.77
2018-05-13T19:31:34.208Z,308.53
2018-05-13T19:34:43.399Z,294.27
2018-05-13T19:37:53.533Z,338.07
2018-05-13T19:41:03.777Z,341.27
2018-05-13T19:44:13.642Z,348.83
2018-05-13T19:47:23.952Z,344.13
2018-05-13T19:50:34.235Z,342.17
2018-05-13T19:53:44.761Z,347.10
2018-05-13T19:56:54.779Z,356.43
2018-05-13T20:00:04.730Z,366.47
2018-05-13T20:03:14.615Z,390.13
2018-05-13T20:06:24.053Z,390.80
2018-05-13T20:09:33.541Z,383.53
2018-05-13T20:12:43.612Z,403.33
2018-05-13T20:15:53.532Z,458.13
2018-05-13T20:19:03.429Z,397.27
2018-05-13T20:22:12.829Z,410.57
2018-05-13T20:25:23.202Z,369.30
2018-05-13T20:28:33.470Z,378.27
2018-05-13T20:31:43.045Z,387.60
2018-05-13T20:34:52.993Z,332.77
2018-05-13T20:38:03.076Z,366.80
2018-05-13T20:41:12.687Z,363.10
2018-05-13T20:44:23.308Z,362.23
2018-05-13T20:47:33.072Z,382.73
2018-05-13T20:50:43.097Z,346.53
2018-05-13T20:53:52.642Z,363.70
2018-05-13T20:57:02.553Z,359.23
2018-05-13T21:00:13.162Z,384.07
2018-05-13T21:03:23.969Z,348.10
2018-05-13T21:06:33.445Z,307.97
2018-05-13T21:09:43.364Z,310.73
2018-05-13T21:12:52.895Z,332.17
2018-05-13T21:16:02.710Z,323.50
2018-05-13T21:19:11.963Z,312.67
2018-05-13T21:22:21.511Z,290.23
2018-05-13T21:25:30.921Z,327.83
2018-05-13T21:28:40.949Z,337.00
2018-05-13T21:31:51.129Z,319.83
2018-05-13T21:35:01.337Z,342.90
2018-05-13T21:38:10.817Z,326.43
2018-05-13T21:41:20.681Z,367.73
2018-05-13T21:44:30.590Z,381.90
2018-05-13T21:47:40.877Z,369.53
2018-05-13T21:50:51.109Z,332.73
2018-05-13T21:54:01.140Z,358.33
2018-05-13T21:57:11.181Z,380.60
2018-05-13T22:00:21.351Z,370.30
2018-05-13T22:03:30.900Z,352.23
2018-05-13T22:06:43.742Z,354.43
2018-05-13T22:09:53.424Z,406.73
2018-05-13T22:13:03.718Z,444.37
2018-05-13T22:16:13.600Z,402.63
2018-05-13T22:19:22.994Z,395.67
2018-05-13T22:22:33.581Z,446.50
2018-05-13T22:25:43.149Z,452.80
2018-05-13T22:28:53.264Z,462.73
2018-05-13T22:32:03.208Z,470.70
2018-05-13T22:35:12.634Z,408.83
2018-05-13T22:38:21.999Z,448.93
2018-05-13T22:41:31.626Z,445.27
2018-05-13T22:44:40.968Z,434.53
2018-05-13T22:47:50.396Z,491.60
2018-05-13T22:50:59.972Z,466.23
2018-05-13T22:54:09.421Z,484.60
2018-05-13T22:57:18.932Z,432.90
2018-05-13T23:00:29.500Z,453.73
2018-05-13T23:03:38.827Z,463.70
2018-05-13T23:06:49.000Z,439.83
2018-05-13T23:09:59.000Z,444.30
2018-05-13T23:13:08.698Z,450.87
2018-05-13T23:16:18.289Z,442.10
2018-05-13T23:19:30.274Z,431.50
2018-05-13T23:22:40.114Z,444.83
2018-05-13T23:25:49.674Z,399.10
2018-05-13T23:28:59.285Z,398.63
2018-05-13T23:32:09.775Z,389.27
2018-05-13T23:35:20.138Z,372.53
2018-05-13T23:38:31.823Z,382.23
2018-05-13T23:41:42.239Z,368.63
2018-05-13T23:44:51.605Z,382.57
2018-05-13T23:48:01.864Z,376.20
2018-05-13T23:51:11.408Z,382.67
2018-05-13T23:54:20.740Z,363.80
2018-05-13T23:57:31.357Z,364.93
